< Typhoon 201118 2011 Season Typhoon 201120 >
Typhoon 201119 (NALGAE)
General InformationTrack Information on Google MapsDetailed Wind InformationAccess Analytics MapList of All Images || NewsDisaster Info.WeblogTrackbackTyphoon FrontTwiphoonTyphoon Now!Typhoon ImaginationResourceGoogle EarthGE AnimationAtom FeedGeoJSON
Detalied Best Track (Time Zone = UTC)
Year Month Day Hour Lat. Long. Pressure (hPa) Wind (kt) Class Image Chart
2011 9 26 12 18.3 139.6 1008 0 2 Image Chart
2011 9 26 18 18.5 138.7 1006 0 2 Image Chart
2011 9 27 00 18.8 138.0 1008 0 2 Image Chart
2011 9 27 06 18.9 137.8 1004 0 2 Image Chart
2011 9 27 12 18.9 137.6 1004 0 2 Image Chart
2011 9 27 18 19.0 137.2 1000 35 3 Image Chart
2011 9 28 00 19.1 136.8 998 40 3 Image Chart
2011 9 28 06 19.1 136.4 994 45 3 Image Chart
2011 9 28 12 18.7 135.9 990 50 4 Image Chart
2011 9 28 18 18.4 135.2 985 55 4 Image Chart
2011 9 29 00 18.1 134.2 980 60 4 Image Chart
2011 9 29 06 17.8 133.1 975 65 5 Image Chart
2011 9 29 12 17.6 131.7 965 75 5 Image Chart
2011 9 29 18 17.7 130.4 960 80 5 Image Chart
2011 9 30 00 17.7 129.0 955 80 5 Image Chart
2011 9 30 06 17.8 127.4 950 85 5 Image Chart
2011 9 30 12 17.6 125.8 940 90 5 Image Chart
2011 9 30 18 16.9 124.1 940 90 5 Image Chart
2011 10 1 00 16.8 122.7 935 95 5 Image Chart
2011 10 1 06 16.6 121.3 950 85 5 Image Chart
2011 10 1 12 16.4 119.7 965 75 5 Image Chart
2011 10 1 18 16.4 118.8 965 70 5 Image Chart
2011 10 2 00 16.5 117.6 970 65 5 Image Chart
2011 10 2 06 16.7 116.6 975 60 4 Image Chart
2011 10 2 12 17.1 115.6 980 55 4 Image Chart
2011 10 2 18 17.5 114.9 985 50 4 Image Chart
2011 10 3 00 17.6 114.3 985 50 4 Image Chart
2011 10 3 06 17.8 113.5 985 50 4 Image Chart
2011 10 3 12 17.8 112.8 985 50 4 Image Chart
2011 10 3 18 17.9 111.9 990 45 3 Image Chart
2011 10 4 00 18.1 111.0 992 45 3 Image Chart
2011 10 4 06 18.5 109.9 996 40 3 Image Chart
2011 10 4 12 18.3 108.7 1000 35 3 Image Chart
2011 10 4 18 18.3 108.5 1004 0 2 Image Chart
2011 10 5 00 18.2 108.2 1006 0 2 Image Chart
2011 10 5 06 18.1 108.0 1006 0 2 Image Chart
2011 10 5 12 18.0 107.5 1008 0 2 Image Chart
Japan Meteorological Agency Best Track Data | Correction Date : 2011-11-14
< Typhoon 201118 2011 Season Typhoon 201120 >

Help